sensor_id;sensor_type;location;lat;lon;timestamp;P1;durP1;ratioP1;P2;durP2;ratioP2
16436;SDS011;8328;52.206;21.006;2023-05-07T00:00:48;5.60;;;3.70;;
16436;SDS011;8328;52.206;21.006;2023-05-07T00:03:14;5.87;;;3.50;;
16436;SDS011;8328;52.206;21.006;2023-05-07T00:05:40;5.23;;;3.53;;
16436;SDS011;8328;52.206;21.006;2023-05-07T00:08:06;5.53;;;3.60;;
16436;SDS011;8328;52.206;21.006;2023-05-07T00:10:32;4.93;;;3.67;;
16436;SDS011;8328;52.206;21.006;2023-05-07T00:12:58;4.90;;;3.67;;
16436;SDS011;8328;52.206;21.006;2023-05-07T00:15:24;4.70;;;3.37;;
16436;SDS011;8328;52.206;21.006;2023-05-07T00:17:50;5.47;;;3.07;;
16436;SDS011;8328;52.206;21.006;2023-05-07T00:20:18;3.90;;;3.20;;
16436;SDS011;8328;52.206;21.006;2023-05-07T00:22:44;6.10;;;3.33;;
16436;SDS011;8328;52.206;21.006;2023-05-07T00:25:10;4.70;;;3.67;;
16436;SDS011;8328;52.206;21.006;2023-05-07T00:27:35;5.73;;;3.60;;
16436;SDS011;8328;52.206;21.006;2023-05-07T00:30:01;4.40;;;3.37;;
16436;SDS011;8328;52.206;21.006;2023-05-07T00:32:27;6.57;;;3.53;;
16436;SDS011;8328;52.206;21.006;2023-05-07T00:34:53;3.63;;;3.00;;
16436;SDS011;8328;52.206;21.006;2023-05-07T00:37:19;5.63;;;3.30;;
16436;SDS011;8328;52.206;21.006;2023-05-07T00:39:44;4.23;;;3.30;;
16436;SDS011;8328;52.206;21.006;2023-05-07T00:42:10;4.90;;;3.43;;
16436;SDS011;8328;52.206;21.006;2023-05-07T00:44:36;5.30;;;3.23;;
16436;SDS011;8328;52.206;21.006;2023-05-07T00:47:02;4.30;;;3.07;;
16436;SDS011;8328;52.206;21.006;2023-05-07T00:49:35;4.67;;;3.30;;
16436;SDS011;8328;52.206;21.006;2023-05-07T00:52:13;5.00;;;3.43;;
16436;SDS011;8328;52.206;21.006;2023-05-07T00:54:41;4.40;;;3.60;;
16436;SDS011;8328;52.206;21.006;2023-05-07T00:57:07;6.70;;;3.70;;
16436;SDS011;8328;52.206;21.006;2023-05-07T00:59:36;5.60;;;3.50;;
16436;SDS011;8328;52.206;21.006;2023-05-07T01:02:02;6.93;;;3.60;;
16436;SDS011;8328;52.206;21.006;2023-05-07T01:04:28;5.47;;;3.50;;
16436;SDS011;8328;52.206;21.006;2023-05-07T01:06:54;3.70;;;3.30;;
16436;SDS011;8328;52.206;21.006;2023-05-07T01:09:21;4.43;;;3.33;;
16436;SDS011;8328;52.206;21.006;2023-05-07T01:11:49;3.87;;;3.03;;
16436;SDS011;8328;52.206;21.006;2023-05-07T01:14:16;4.83;;;3.30;;
16436;SDS011;8328;52.206;21.006;2023-05-07T01:16:43;4.97;;;3.30;;
16436;SDS011;8328;52.206;21.006;2023-05-07T01:19:09;4.33;;;3.40;;
16436;SDS011;8328;52.206;21.006;2023-05-07T01:21:41;4.77;;;3.40;;
16436;SDS011;8328;52.206;21.006;2023-05-07T01:24:11;3.73;;;2.83;;
16436;SDS011;8328;52.206;21.006;2023-05-07T01:26:37;4.93;;;3.30;;
16436;SDS011;8328;52.206;21.006;2023-05-07T01:29:04;4.93;;;3.07;;
16436;SDS011;8328;52.206;21.006;2023-05-07T01:31:30;4.23;;;3.20;;
16436;SDS011;8328;52.206;21.006;2023-05-07T01:33:59;4.13;;;3.27;;
16436;SDS011;8328;52.206;21.006;2023-05-07T01:36:29;4.47;;;3.00;;
16436;SDS011;8328;52.206;21.006;2023-05-07T01:38:56;4.57;;;3.73;;
16436;SDS011;8328;52.206;21.006;2023-05-07T01:41:23;6.53;;;3.40;;
16436;SDS011;8328;52.206;21.006;2023-05-07T01:43:50;5.80;;;3.37;;
16436;SDS011;8328;52.206;21.006;2023-05-07T01:46:17;4.63;;;3.13;;
16436;SDS011;8328;52.206;21.006;2023-05-07T01:48:44;4.63;;;3.10;;
16436;SDS011;8328;52.206;21.006;2023-05-07T01:51:11;5.93;;;3.50;;
16436;SDS011;8328;52.206;21.006;2023-05-07T01:53:37;4.60;;;3.13;;
16436;SDS011;8328;52.206;21.006;2023-05-07T01:56:04;3.87;;;3.20;;
16436;SDS011;8328;52.206;21.006;2023-05-07T01:58:30;5.13;;;3.33;;
16436;SDS011;8328;52.206;21.006;2023-05-07T02:00:56;5.50;;;3.27;;
16436;SDS011;8328;52.206;21.006;2023-05-07T02:03:22;3.73;;;2.93;;
16436;SDS011;8328;52.206;21.006;2023-05-07T02:05:47;5.10;;;3.10;;
16436;SDS011;8328;52.206;21.006;2023-05-07T02:08:13;4.13;;;3.03;;
16436;SDS011;8328;52.206;21.006;2023-05-07T02:10:39;3.17;;;2.87;;
16436;SDS011;8328;52.206;21.006;2023-05-07T02:13:05;3.10;;;2.77;;
16436;SDS011;8328;52.206;21.006;2023-05-07T02:15:31;3.00;;;2.70;;
16436;SDS011;8328;52.206;21.006;2023-05-07T02:20:52;4.13;;;3.10;;
16436;SDS011;8328;52.206;21.006;2023-05-07T02:23:17;3.47;;;3.03;;
16436;SDS011;8328;52.206;21.006;2023-05-07T02:25:43;5.60;;;3.40;;
16436;SDS011;8328;52.206;21.006;2023-05-07T02:28:11;4.27;;;3.43;;
16436;SDS011;8328;52.206;21.006;2023-05-07T02:30:38;5.77;;;3.30;;
16436;SDS011;8328;52.206;21.006;2023-05-07T02:33:05;4.87;;;3.30;;
16436;SDS011;8328;52.206;21.006;2023-05-07T02:35:32;3.80;;;3.10;;
16436;SDS011;8328;52.206;21.006;2023-05-07T02:37:57;4.57;;;3.63;;
16436;SDS011;8328;52.206;21.006;2023-05-07T02:40:23;3.57;;;2.87;;
16436;SDS011;8328;52.206;21.006;2023-05-07T02:42:49;5.30;;;3.63;;
16436;SDS011;8328;52.206;21.006;2023-05-07T02:45:15;3.27;;;2.80;;
16436;SDS011;8328;52.206;21.006;2023-05-07T02:47:40;4.63;;;3.67;;
16436;SDS011;8328;52.206;21.006;2023-05-07T02:50:06;3.87;;;3.30;;
16436;SDS011;8328;52.206;21.006;2023-05-07T02:52:32;4.07;;;3.57;;
16436;SDS011;8328;52.206;21.006;2023-05-07T02:54:58;4.20;;;3.33;;
16436;SDS011;8328;52.206;21.006;2023-05-07T02:57:24;4.30;;;3.50;;
16436;SDS011;8328;52.206;21.006;2023-05-07T02:59:50;4.97;;;3.13;;
16436;SDS011;8328;52.206;21.006;2023-05-07T03:02:15;6.83;;;3.23;;
16436;SDS011;8328;52.206;21.006;2023-05-07T03:04:41;4.90;;;3.57;;
16436;SDS011;8328;52.206;21.006;2023-05-07T03:07:07;3.17;;;2.60;;
16436;SDS011;8328;52.206;21.006;2023-05-07T03:09:33;3.00;;;2.60;;
16436;SDS011;8328;52.206;21.006;2023-05-07T03:11:58;2.60;;;2.40;;
16436;SDS011;8328;52.206;21.006;2023-05-07T03:14:24;4.10;;;2.60;;
16436;SDS011;8328;52.206;21.006;2023-05-07T03:16:50;3.10;;;2.60;;
16436;SDS011;8328;52.206;21.006;2023-05-07T03:19:16;3.70;;;3.20;;
16436;SDS011;8328;52.206;21.006;2023-05-07T03:21:42;4.50;;;2.53;;
16436;SDS011;8328;52.206;21.006;2023-05-07T03:24:08;3.70;;;2.77;;
16436;SDS011;8328;52.206;21.006;2023-05-07T03:26:33;3.70;;;2.80;;
16436;SDS011;8328;52.206;21.006;2023-05-07T03:28:59;3.63;;;2.50;;
16436;SDS011;8328;52.206;21.006;2023-05-07T03:31:25;4.43;;;2.43;;
16436;SDS011;8328;52.206;21.006;2023-05-07T03:33:54;3.70;;;2.67;;
16436;SDS011;8328;52.206;21.006;2023-05-07T03:36:21;4.27;;;2.60;;
16436;SDS011;8328;52.206;21.006;2023-05-07T03:38:48;4.20;;;3.07;;
16436;SDS011;8328;52.206;21.006;2023-05-07T03:41:14;3.10;;;2.53;;
16436;SDS011;8328;52.206;21.006;2023-05-07T03:43:40;4.13;;;2.63;;
16436;SDS011;8328;52.206;21.006;2023-05-07T03:46:09;3.60;;;2.67;;
16436;SDS011;8328;52.206;21.006;2023-05-07T03:48:34;3.50;;;2.80;;
16436;SDS011;8328;52.206;21.006;2023-05-07T03:51:00;2.60;;;2.37;;
16436;SDS011;8328;52.206;21.006;2023-05-07T03:53:26;2.80;;;2.50;;
16436;SDS011;8328;52.206;21.006;2023-05-07T03:55:51;3.87;;;2.50;;
16436;SDS011;8328;52.206;21.006;2023-05-07T03:58:17;3.00;;;2.70;;
16436;SDS011;8328;52.206;21.006;2023-05-07T04:00:43;2.93;;;2.57;;
16436;SDS011;8328;52.206;21.006;2023-05-07T04:03:09;6.63;;;3.20;;
16436;SDS011;8328;52.206;21.006;2023-05-07T04:05:34;4.57;;;2.83;;
16436;SDS011;8328;52.206;21.006;2023-05-07T04:08:00;5.43;;;2.60;;
16436;SDS011;8328;52.206;21.006;2023-05-07T04:10:27;3.70;;;2.67;;
16436;SDS011;8328;52.206;21.006;2023-05-07T04:12:54;2.90;;;2.40;;
16436;SDS011;8328;52.206;21.006;2023-05-07T04:15:20;4.50;;;2.40;;
16436;SDS011;8328;52.206;21.006;2023-05-07T04:17:46;2.83;;;2.53;;
16436;SDS011;8328;52.206;21.006;2023-05-07T04:20:15;4.07;;;2.70;;
16436;SDS011;8328;52.206;21.006;2023-05-07T04:22:42;3.23;;;2.60;;
16436;SDS011;8328;52.206;21.006;2023-05-07T04:25:08;4.03;;;2.73;;
16436;SDS011;8328;52.206;21.006;2023-05-07T04:27:35;3.43;;;2.33;;
16436;SDS011;8328;52.206;21.006;2023-05-07T04:30:01;3.63;;;2.70;;
16436;SDS011;8328;52.206;21.006;2023-05-07T04:32:28;5.80;;;2.63;;
16436;SDS011;8328;52.206;21.006;2023-05-07T04:34:54;3.77;;;2.50;;
16436;SDS011;8328;52.206;21.006;2023-05-07T04:37:20;3.37;;;2.70;;
16436;SDS011;8328;52.206;21.006;2023-05-07T04:39:47;3.27;;;2.50;;
16436;SDS011;8328;52.206;21.006;2023-05-07T04:42:16;3.17;;;2.53;;
16436;SDS011;8328;52.206;21.006;2023-05-07T04:44:43;3.90;;;2.53;;
16436;SDS011;8328;52.206;21.006;2023-05-07T04:47:10;3.37;;;2.53;;
16436;SDS011;8328;52.206;21.006;2023-05-07T04:49:37;3.03;;;2.40;;
16436;SDS011;8328;52.206;21.006;2023-05-07T04:52:03;2.77;;;2.23;;
16436;SDS011;8328;52.206;21.006;2023-05-07T04:54:30;3.13;;;2.43;;
16436;SDS011;8328;52.206;21.006;2023-05-07T04:56:56;2.70;;;2.43;;
16436;SDS011;8328;52.206;21.006;2023-05-07T04:59:21;4.40;;;3.60;;
16436;SDS011;8328;52.206;21.006;2023-05-07T05:01:47;3.63;;;2.47;;
16436;SDS011;8328;52.206;21.006;2023-05-07T05:04:13;2.37;;;2.03;;
16436;SDS011;8328;52.206;21.006;2023-05-07T05:06:39;3.07;;;2.77;;
16436;SDS011;8328;52.206;21.006;2023-05-07T05:09:05;2.77;;;2.20;;
16436;SDS011;8328;52.206;21.006;2023-05-07T05:11:31;2.33;;;2.13;;
16436;SDS011;8328;52.206;21.006;2023-05-07T05:13:58;2.77;;;2.27;;
16436;SDS011;8328;52.206;21.006;2023-05-07T05:16:25;3.67;;;2.33;;
16436;SDS011;8328;52.206;21.006;2023-05-07T05:18:52;2.77;;;2.50;;
16436;SDS011;8328;52.206;21.006;2023-05-07T05:21:20;3.10;;;2.20;;
16436;SDS011;8328;52.206;21.006;2023-05-07T05:23:46;2.23;;;1.93;;
16436;SDS011;8328;52.206;21.006;2023-05-07T05:26:12;2.87;;;2.20;;
16436;SDS011;8328;52.206;21.006;2023-05-07T05:28:37;3.10;;;2.20;;
16436;SDS011;8328;52.206;21.006;2023-05-07T05:31:04;5.00;;;2.17;;
16436;SDS011;8328;52.206;21.006;2023-05-07T05:33:30;2.43;;;1.80;;
16436;SDS011;8328;52.206;21.006;2023-05-07T05:35:55;2.47;;;1.97;;
16436;SDS011;8328;52.206;21.006;2023-05-07T05:38:21;2.33;;;2.10;;
16436;SDS011;8328;52.206;21.006;2023-05-07T05:40:47;3.60;;;1.80;;
16436;SDS011;8328;52.206;21.006;2023-05-07T05:43:13;2.03;;;1.83;;
16436;SDS011;8328;52.206;21.006;2023-05-07T05:45:39;2.67;;;2.07;;
16436;SDS011;8328;52.206;21.006;2023-05-07T05:48:05;2.73;;;1.80;;
16436;SDS011;8328;52.206;21.006;2023-05-07T05:50:31;4.53;;;2.10;;
16436;SDS011;8328;52.206;21.006;2023-05-07T05:52:57;3.23;;;1.80;;
16436;SDS011;8328;52.206;21.006;2023-05-07T05:55:23;1.97;;;1.77;;
16436;SDS011;8328;52.206;21.006;2023-05-07T05:57:49;3.07;;;1.70;;
16436;SDS011;8328;52.206;21.006;2023-05-07T06:00:15;2.13;;;1.83;;
16436;SDS011;8328;52.206;21.006;2023-05-07T06:02:41;4.90;;;1.90;;
16436;SDS011;8328;52.206;21.006;2023-05-07T06:05:10;2.93;;;2.57;;
16436;SDS011;8328;52.206;21.006;2023-05-07T06:07:35;2.30;;;1.77;;
16436;SDS011;8328;52.206;21.006;2023-05-07T06:10:01;1.53;;;1.43;;
16436;SDS011;8328;52.206;21.006;2023-05-07T06:12:27;2.40;;;1.90;;
16436;SDS011;8328;52.206;21.006;2023-05-07T06:14:53;1.90;;;1.70;;
16436;SDS011;8328;52.206;21.006;2023-05-07T06:17:18;2.20;;;1.90;;
16436;SDS011;8328;52.206;21.006;2023-05-07T06:19:44;4.77;;;3.03;;
16436;SDS011;8328;52.206;21.006;2023-05-07T06:22:10;3.97;;;2.00;;
16436;SDS011;8328;52.206;21.006;2023-05-07T06:24:35;1.70;;;1.60;;
16436;SDS011;8328;52.206;21.006;2023-05-07T06:27:01;3.13;;;2.50;;
16436;SDS011;8328;52.206;21.006;2023-05-07T06:29:27;3.53;;;1.70;;
16436;SDS011;8328;52.206;21.006;2023-05-07T06:31:56;2.23;;;1.50;;
16436;SDS011;8328;52.206;21.006;2023-05-07T06:34:31;2.07;;;1.77;;
16436;SDS011;8328;52.206;21.006;2023-05-07T06:36:56;1.90;;;1.60;;
16436;SDS011;8328;52.206;21.006;2023-05-07T06:39:23;2.23;;;1.40;;
16436;SDS011;8328;52.206;21.006;2023-05-07T06:41:50;4.13;;;1.70;;
16436;SDS011;8328;52.206;21.006;2023-05-07T06:44:16;2.53;;;1.90;;
16436;SDS011;8328;52.206;21.006;2023-05-07T06:46:42;3.13;;;1.80;;
16436;SDS011;8328;52.206;21.006;2023-05-07T06:49:07;4.20;;;3.57;;
16436;SDS011;8328;52.206;21.006;2023-05-07T06:51:33;2.53;;;2.10;;
16436;SDS011;8328;52.206;21.006;2023-05-07T06:53:59;3.50;;;2.90;;
16436;SDS011;8328;52.206;21.006;2023-05-07T06:56:25;3.40;;;1.90;;
16436;SDS011;8328;52.206;21.006;2023-05-07T06:58:54;2.83;;;2.57;;
16436;SDS011;8328;52.206;21.006;2023-05-07T07:01:19;4.23;;;2.60;;
16436;SDS011;8328;52.206;21.006;2023-05-07T07:03:45;2.27;;;2.07;;
16436;SDS011;8328;52.206;21.006;2023-05-07T07:06:11;2.50;;;2.23;;
16436;SDS011;8328;52.206;21.006;2023-05-07T07:08:37;2.33;;;1.80;;
16436;SDS011;8328;52.206;21.006;2023-05-07T07:11:04;3.10;;;2.60;;
16436;SDS011;8328;52.206;21.006;2023-05-07T07:13:30;2.00;;;1.60;;
16436;SDS011;8328;52.206;21.006;2023-05-07T07:15:56;1.87;;;1.60;;
16436;SDS011;8328;52.206;21.006;2023-05-07T07:18:22;1.73;;;1.60;;
16436;SDS011;8328;52.206;21.006;2023-05-07T07:20:54;2.97;;;1.50;;
16436;SDS011;8328;52.206;21.006;2023-05-07T07:23:19;2.70;;;1.70;;
16436;SDS011;8328;52.206;21.006;2023-05-07T07:25:45;1.90;;;1.80;;
16436;SDS011;8328;52.206;21.006;2023-05-07T07:28:11;2.63;;;1.70;;
16436;SDS011;8328;52.206;21.006;2023-05-07T07:30:38;3.10;;;1.60;;
16436;SDS011;8328;52.206;21.006;2023-05-07T07:33:04;1.77;;;1.60;;
16436;SDS011;8328;52.206;21.006;2023-05-07T07:35:33;3.63;;;1.70;;
16436;SDS011;8328;52.206;21.006;2023-05-07T07:38:02;2.43;;;1.80;;
16436;SDS011;8328;52.206;21.006;2023-05-07T07:40:28;3.57;;;2.17;;
16436;SDS011;8328;52.206;21.006;2023-05-07T07:42:56;2.17;;;1.77;;
16436;SDS011;8328;52.206;21.006;2023-05-07T07:45:22;3.10;;;1.50;;
16436;SDS011;8328;52.206;21.006;2023-05-07T07:47:48;2.77;;;1.60;;
16436;SDS011;8328;52.206;21.006;2023-05-07T07:50:14;2.13;;;1.40;;
16436;SDS011;8328;52.206;21.006;2023-05-07T07:52:39;1.67;;;1.47;;
16436;SDS011;8328;52.206;21.006;2023-05-07T07:55:06;2.00;;;1.80;;
16436;SDS011;8328;52.206;21.006;2023-05-07T07:57:32;1.80;;;1.70;;
16436;SDS011;8328;52.206;21.006;2023-05-07T07:59:58;2.77;;;1.53;;
16436;SDS011;8328;52.206;21.006;2023-05-07T08:02:24;2.00;;;1.67;;
16436;SDS011;8328;52.206;21.006;2023-05-07T08:04:50;2.27;;;1.80;;
16436;SDS011;8328;52.206;21.006;2023-05-07T08:07:16;2.20;;;1.63;;
16436;SDS011;8328;52.206;21.006;2023-05-07T08:09:44;2.37;;;1.73;;
16436;SDS011;8328;52.206;21.006;2023-05-07T08:12:14;2.03;;;1.83;;
16436;SDS011;8328;52.206;21.006;2023-05-07T08:14:40;4.00;;;1.87;;
16436;SDS011;8328;52.206;21.006;2023-05-07T08:17:06;2.47;;;1.60;;
16436;SDS011;8328;52.206;21.006;2023-05-07T08:19:32;1.90;;;1.67;;
16436;SDS011;8328;52.206;21.006;2023-05-07T08:22:00;2.17;;;1.50;;
16436;SDS011;8328;52.206;21.006;2023-05-07T08:24:26;2.70;;;1.60;;
16436;SDS011;8328;52.206;21.006;2023-05-07T08:26:51;2.00;;;1.60;;
16436;SDS011;8328;52.206;21.006;2023-05-07T08:29:19;2.13;;;1.60;;
16436;SDS011;8328;52.206;21.006;2023-05-07T08:31:44;3.40;;;1.90;;
16436;SDS011;8328;52.206;21.006;2023-05-07T08:34:10;1.50;;;1.40;;
16436;SDS011;8328;52.206;21.006;2023-05-07T08:36:39;2.70;;;1.60;;
16436;SDS011;8328;52.206;21.006;2023-05-07T08:39:06;3.53;;;1.80;;
16436;SDS011;8328;52.206;21.006;2023-05-07T08:41:32;3.40;;;1.60;;
16436;SDS011;8328;52.206;21.006;2023-05-07T08:43:59;3.70;;;1.90;;
16436;SDS011;8328;52.206;21.006;2023-05-07T08:46:31;2.20;;;1.57;;
16436;SDS011;8328;52.206;21.006;2023-05-07T08:48:58;4.20;;;1.80;;
16436;SDS011;8328;52.206;21.006;2023-05-07T08:51:24;2.90;;;2.03;;
16436;SDS011;8328;52.206;21.006;2023-05-07T08:53:50;3.30;;;1.77;;
16436;SDS011;8328;52.206;21.006;2023-05-07T08:56:16;2.17;;;1.50;;
16436;SDS011;8328;52.206;21.006;2023-05-07T08:58:45;2.33;;;1.57;;
16436;SDS011;8328;52.206;21.006;2023-05-07T09:01:14;1.80;;;1.50;;
16436;SDS011;8328;52.206;21.006;2023-05-07T09:03:41;1.80;;;1.60;;
16436;SDS011;8328;52.206;21.006;2023-05-07T09:06:10;2.37;;;1.63;;
16436;SDS011;8328;52.206;21.006;2023-05-07T09:08:36;4.07;;;1.70;;
16436;SDS011;8328;52.206;21.006;2023-05-07T09:11:02;1.63;;;1.53;;
16436;SDS011;8328;52.206;21.006;2023-05-07T09:13:28;2.10;;;1.77;;
16436;SDS011;8328;52.206;21.006;2023-05-07T09:15:54;4.50;;;1.53;;
16436;SDS011;8328;52.206;21.006;2023-05-07T09:18:25;3.93;;;1.50;;
16436;SDS011;8328;52.206;21.006;2023-05-07T09:20:52;2.27;;;1.60;;
16436;SDS011;8328;52.206;21.006;2023-05-07T09:23:17;1.47;;;1.37;;
16436;SDS011;8328;52.206;21.006;2023-05-07T09:25:44;1.60;;;1.50;;
16436;SDS011;8328;52.206;21.006;2023-05-07T09:28:09;2.60;;;1.30;;
16436;SDS011;8328;52.206;21.006;2023-05-07T09:30:36;2.67;;;1.37;;
16436;SDS011;8328;52.206;21.006;2023-05-07T09:33:02;3.00;;;1.43;;
16436;SDS011;8328;52.206;21.006;2023-05-07T09:35:29;1.90;;;1.47;;
16436;SDS011;8328;52.206;21.006;2023-05-07T09:37:56;2.63;;;1.70;;
16436;SDS011;8328;52.206;21.006;2023-05-07T09:40:23;2.47;;;1.40;;
16436;SDS011;8328;52.206;21.006;2023-05-07T09:42:50;1.57;;;1.47;;
16436;SDS011;8328;52.206;21.006;2023-05-07T09:45:26;1.73;;;1.50;;
16436;SDS011;8328;52.206;21.006;2023-05-07T09:47:53;1.83;;;1.50;;
16436;SDS011;8328;52.206;21.006;2023-05-07T09:50:26;2.63;;;1.40;;
16436;SDS011;8328;52.206;21.006;2023-05-07T09:52:56;2.30;;;1.50;;
16436;SDS011;8328;52.206;21.006;2023-05-07T09:55:22;3.53;;;1.80;;
16436;SDS011;8328;52.206;21.006;2023-05-07T09:57:52;3.83;;;1.97;;
16436;SDS011;8328;52.206;21.006;2023-05-07T10:00:19;1.83;;;1.37;;
16436;SDS011;8328;52.206;21.006;2023-05-07T10:02:49;3.00;;;1.60;;
16436;SDS011;8328;52.206;21.006;2023-05-07T10:05:20;1.97;;;1.77;;
16436;SDS011;8328;52.206;21.006;2023-05-07T10:07:47;2.23;;;1.60;;
16436;SDS011;8328;52.206;21.006;2023-05-07T10:10:14;2.57;;;1.50;;
16436;SDS011;8328;52.206;21.006;2023-05-07T10:12:43;3.03;;;1.50;;
16436;SDS011;8328;52.206;21.006;2023-05-07T10:15:10;3.07;;;1.40;;
16436;SDS011;8328;52.206;21.006;2023-05-07T10:17:37;3.70;;;1.70;;
16436;SDS011;8328;52.206;21.006;2023-05-07T10:20:04;2.27;;;1.60;;
16436;SDS011;8328;52.206;21.006;2023-05-07T10:22:38;2.10;;;1.50;;
16436;SDS011;8328;52.206;21.006;2023-05-07T10:25:14;2.80;;;1.33;;
16436;SDS011;8328;52.206;21.006;2023-05-07T10:27:46;1.97;;;1.40;;
16436;SDS011;8328;52.206;21.006;2023-05-07T10:32:56;2.03;;;1.50;;
16436;SDS011;8328;52.206;21.006;2023-05-07T10:35:32;2.73;;;1.50;;
16436;SDS011;8328;52.206;21.006;2023-05-07T10:38:06;1.80;;;1.33;;
16436;SDS011;8328;52.206;21.006;2023-05-07T10:40:32;2.93;;;1.70;;
16436;SDS011;8328;52.206;21.006;2023-05-07T10:43:01;1.57;;;1.43;;
16436;SDS011;8328;52.206;21.006;2023-05-07T10:45:30;1.43;;;1.30;;
16436;SDS011;8328;52.206;21.006;2023-05-07T10:48:13;2.30;;;1.47;;
16436;SDS011;8328;52.206;21.006;2023-05-07T10:50:41;1.90;;;1.40;;
16436;SDS011;8328;52.206;21.006;2023-05-07T10:55:49;2.00;;;1.30;;
16436;SDS011;8328;52.206;21.006;2023-05-07T10:58:23;1.47;;;1.23;;
16436;SDS011;8328;52.206;21.006;2023-05-07T11:01:02;3.90;;;1.60;;
16436;SDS011;8328;52.206;21.006;2023-05-07T11:03:28;3.30;;;1.67;;
16436;SDS011;8328;52.206;21.006;2023-05-07T11:06:10;1.63;;;1.53;;
16436;SDS011;8328;52.206;21.006;2023-05-07T11:08:53;2.27;;;1.63;;
16436;SDS011;8328;52.206;21.006;2023-05-07T11:12:05;2.40;;;1.50;;
16436;SDS011;8328;52.206;21.006;2023-05-07T11:14:13;2.60;;;1.47;;
16436;SDS011;8328;52.206;21.006;2023-05-07T11:16:40;2.13;;;1.50;;
16436;SDS011;8328;52.206;21.006;2023-05-07T11:19:10;1.83;;;1.53;;
16436;SDS011;8328;52.206;21.006;2023-05-07T11:21:38;1.87;;;1.43;;
16436;SDS011;8328;52.206;21.006;2023-05-07T11:24:06;2.23;;;1.57;;
16436;SDS011;8328;52.206;21.006;2023-05-07T11:26:48;2.83;;;1.47;;
16436;SDS011;8328;52.206;21.006;2023-05-07T11:29:16;2.17;;;1.80;;
16436;SDS011;8328;52.206;21.006;2023-05-07T11:31:43;1.63;;;1.43;;
16436;SDS011;8328;52.206;21.006;2023-05-07T11:34:14;1.87;;;1.30;;
16436;SDS011;8328;52.206;21.006;2023-05-07T11:36:45;1.77;;;1.40;;
16436;SDS011;8328;52.206;21.006;2023-05-07T11:41:58;2.07;;;1.50;;
16436;SDS011;8328;52.206;21.006;2023-05-07T11:44:25;3.20;;;1.60;;
16436;SDS011;8328;52.206;21.006;2023-05-07T11:47:07;1.60;;;1.43;;
16436;SDS011;8328;52.206;21.006;2023-05-07T11:49:32;3.93;;;1.30;;
16436;SDS011;8328;52.206;21.006;2023-05-07T11:51:59;2.90;;;1.30;;
16436;SDS011;8328;52.206;21.006;2023-05-07T11:54:25;2.17;;;1.53;;
16436;SDS011;8328;52.206;21.006;2023-05-07T11:56:51;2.13;;;1.10;;
16436;SDS011;8328;52.206;21.006;2023-05-07T11:59:17;3.40;;;1.50;;
16436;SDS011;8328;52.206;21.006;2023-05-07T12:01:45;2.20;;;1.23;;
16436;SDS011;8328;52.206;21.006;2023-05-07T12:04:12;3.40;;;1.30;;
16436;SDS011;8328;52.206;21.006;2023-05-07T12:06:37;3.13;;;1.07;;
16436;SDS011;8328;52.206;21.006;2023-05-07T12:09:04;1.43;;;1.10;;
16436;SDS011;8328;52.206;21.006;2023-05-07T12:11:32;3.37;;;1.43;;
16436;SDS011;8328;52.206;21.006;2023-05-07T12:13:57;1.33;;;1.20;;
16436;SDS011;8328;52.206;21.006;2023-05-07T12:16:23;1.40;;;1.30;;
16436;SDS011;8328;52.206;21.006;2023-05-07T12:18:50;2.47;;;1.33;;
16436;SDS011;8328;52.206;21.006;2023-05-07T12:21:17;2.70;;;1.83;;
16436;SDS011;8328;52.206;21.006;2023-05-07T12:23:43;2.70;;;1.30;;
16436;SDS011;8328;52.206;21.006;2023-05-07T12:26:10;3.23;;;2.43;;
16436;SDS011;8328;52.206;21.006;2023-05-07T12:28:36;2.00;;;1.50;;
16436;SDS011;8328;52.206;21.006;2023-05-07T12:31:06;2.27;;;1.40;;
16436;SDS011;8328;52.206;21.006;2023-05-07T12:33:34;1.73;;;1.40;;
16436;SDS011;8328;52.206;21.006;2023-05-07T12:36:05;4.73;;;1.53;;
16436;SDS011;8328;52.206;21.006;2023-05-07T12:38:35;2.20;;;1.87;;
16436;SDS011;8328;52.206;21.006;2023-05-07T12:41:02;4.10;;;3.20;;
16436;SDS011;8328;52.206;21.006;2023-05-07T12:43:29;2.87;;;2.40;;
16436;SDS011;8328;52.206;21.006;2023-05-07T12:46:00;2.40;;;1.40;;
16436;SDS011;8328;52.206;21.006;2023-05-07T12:48:27;3.93;;;1.53;;
16436;SDS011;8328;52.206;21.006;2023-05-07T12:50:53;3.03;;;1.57;;
16436;SDS011;8328;52.206;21.006;2023-05-07T12:53:23;1.70;;;1.30;;
16436;SDS011;8328;52.206;21.006;2023-05-07T12:55:51;2.13;;;1.30;;
16436;SDS011;8328;52.206;21.006;2023-05-07T12:58:19;3.40;;;1.50;;
16436;SDS011;8328;52.206;21.006;2023-05-07T13:00:56;3.27;;;1.17;;
16436;SDS011;8328;52.206;21.006;2023-05-07T13:03:32;3.53;;;1.63;;
16436;SDS011;8328;52.206;21.006;2023-05-07T13:06:00;4.60;;;2.30;;
16436;SDS011;8328;52.206;21.006;2023-05-07T13:08:28;1.57;;;1.30;;
16436;SDS011;8328;52.206;21.006;2023-05-07T13:10:59;1.77;;;1.37;;
16436;SDS011;8328;52.206;21.006;2023-05-07T13:13:36;3.53;;;1.73;;
16436;SDS011;8328;52.206;21.006;2023-05-07T13:16:04;1.47;;;1.07;;
16436;SDS011;8328;52.206;21.006;2023-05-07T13:18:31;1.97;;;1.40;;
16436;SDS011;8328;52.206;21.006;2023-05-07T13:20:58;1.53;;;1.10;;
16436;SDS011;8328;52.206;21.006;2023-05-07T13:23:25;2.47;;;2.07;;
16436;SDS011;8328;52.206;21.006;2023-05-07T13:25:51;2.27;;;1.30;;
16436;SDS011;8328;52.206;21.006;2023-05-07T13:28:21;2.10;;;1.40;;
16436;SDS011;8328;52.206;21.006;2023-05-07T13:30:47;2.10;;;1.90;;
16436;SDS011;8328;52.206;21.006;2023-05-07T13:33:14;3.83;;;2.07;;
16436;SDS011;8328;52.206;21.006;2023-05-07T13:35:41;4.57;;;1.57;;
16436;SDS011;8328;52.206;21.006;2023-05-07T13:38:06;2.20;;;1.60;;
16436;SDS011;8328;52.206;21.006;2023-05-07T13:40:33;1.80;;;1.47;;
16436;SDS011;8328;52.206;21.006;2023-05-07T13:42:58;3.00;;;1.20;;
16436;SDS011;8328;52.206;21.006;2023-05-07T13:45:27;3.10;;;1.50;;
16436;SDS011;8328;52.206;21.006;2023-05-07T13:47:54;1.77;;;1.20;;
16436;SDS011;8328;52.206;21.006;2023-05-07T13:50:21;1.47;;;1.23;;
16436;SDS011;8328;52.206;21.006;2023-05-07T13:52:47;1.57;;;1.07;;
16436;SDS011;8328;52.206;21.006;2023-05-07T13:55:16;1.37;;;1.17;;
16436;SDS011;8328;52.206;21.006;2023-05-07T13:57:46;1.97;;;1.20;;
16436;SDS011;8328;52.206;21.006;2023-05-07T14:00:13;2.00;;;1.00;;
16436;SDS011;8328;52.206;21.006;2023-05-07T14:02:41;1.77;;;1.10;;
16436;SDS011;8328;52.206;21.006;2023-05-07T14:05:07;1.37;;;1.10;;
16436;SDS011;8328;52.206;21.006;2023-05-07T14:07:34;1.87;;;1.17;;
16436;SDS011;8328;52.206;21.006;2023-05-07T14:10:00;3.17;;;1.17;;
16436;SDS011;8328;52.206;21.006;2023-05-07T14:12:26;1.53;;;1.30;;
16436;SDS011;8328;52.206;21.006;2023-05-07T14:14:52;2.17;;;1.80;;
16436;SDS011;8328;52.206;21.006;2023-05-07T14:17:18;2.20;;;1.60;;
16436;SDS011;8328;52.206;21.006;2023-05-07T14:19:44;2.10;;;1.60;;
16436;SDS011;8328;52.206;21.006;2023-05-07T14:22:09;1.27;;;1.17;;
16436;SDS011;8328;52.206;21.006;2023-05-07T14:24:35;3.70;;;2.77;;
16436;SDS011;8328;52.206;21.006;2023-05-07T14:27:01;1.70;;;1.40;;
16436;SDS011;8328;52.206;21.006;2023-05-07T14:29:27;2.23;;;1.10;;
16436;SDS011;8328;52.206;21.006;2023-05-07T14:31:53;2.17;;;1.30;;
16436;SDS011;8328;52.206;21.006;2023-05-07T14:34:19;1.90;;;1.33;;
16436;SDS011;8328;52.206;21.006;2023-05-07T14:36:45;1.83;;;1.13;;
16436;SDS011;8328;52.206;21.006;2023-05-07T14:39:11;2.63;;;1.50;;
16436;SDS011;8328;52.206;21.006;2023-05-07T14:41:37;3.47;;;1.53;;
16436;SDS011;8328;52.206;21.006;2023-05-07T14:44:02;2.70;;;1.40;;
16436;SDS011;8328;52.206;21.006;2023-05-07T14:46:29;1.87;;;1.47;;
16436;SDS011;8328;52.206;21.006;2023-05-07T14:48:56;3.77;;;1.87;;
16436;SDS011;8328;52.206;21.006;2023-05-07T14:51:22;1.77;;;1.30;;
16436;SDS011;8328;52.206;21.006;2023-05-07T14:53:49;1.93;;;1.20;;
16436;SDS011;8328;52.206;21.006;2023-05-07T14:56:16;2.00;;;1.50;;
16436;SDS011;8328;52.206;21.006;2023-05-07T14:58:42;2.67;;;2.20;;